createdAt,value
2017-01-28T00:00:10.175Z,2.56
2017-01-28T00:01:14.413Z,2.53
2017-01-28T00:02:19.677Z,2.55
2017-01-28T00:03:23.897Z,2.53
2017-01-28T00:04:29.102Z,2.56
2017-01-28T00:05:35.270Z,2.63
2017-01-28T00:06:40.475Z,2.64
2017-01-28T00:07:45.648Z,2.71
2017-01-28T00:08:51.815Z,2.69
2017-01-28T00:09:57.978Z,2.74
2017-01-28T00:11:01.232Z,2.66
2017-01-28T00:12:07.404Z,2.81
2017-01-28T00:13:12.601Z,2.92
2017-01-28T00:14:17.850Z,2.88
2017-01-28T00:15:23.040Z,2.95
2017-01-28T00:16:29.305Z,2.97
2017-01-28T00:17:35.459Z,3.02
2017-01-28T00:18:41.636Z,3.09
2017-01-28T00:19:44.883Z,3.06
2017-01-28T00:20:50.097Z,3.1
2017-01-28T00:21:56.281Z,3.18
2017-01-28T00:23:00.499Z,3.31
2017-01-28T00:24:05.669Z,3.24
2017-01-28T00:25:11.832Z,3.33
2017-01-28T00:26:16.074Z,3.36
2017-01-28T00:27:20.319Z,3.31
2017-01-28T00:28:26.492Z,3.47
2017-01-28T00:29:31.672Z,3.43
2017-01-28T00:30:37.840Z,3.46
2017-01-28T00:31:44.011Z,3.6
2017-01-28T00:32:50.182Z,3.52
2017-01-28T00:33:56.359Z,3.53
2017-01-28T00:35:02.531Z,3.61
2017-01-28T00:36:08.703Z,3.68
2017-01-28T00:37:14.911Z,3.7
2017-01-28T00:38:20.082Z,3.65
2017-01-28T00:39:25.395Z,3.75
2017-01-28T00:40:31.589Z,3.78
2017-01-28T00:41:37.834Z,3.68
2017-01-28T00:43:48.236Z,3.57
2017-01-28T00:44:54.418Z,3.43
2017-01-28T00:45:59.627Z,3.4
2017-01-28T00:47:05.825Z,3.43
2017-01-28T00:48:10.058Z,3.28
2017-01-28T00:49:16.227Z,3.28
2017-01-28T00:50:22.412Z,3.31
2017-01-28T00:51:27.637Z,3.28
2017-01-28T00:52:31.815Z,3.42
2017-01-28T00:53:37.983Z,3.5
2017-01-28T00:54:44.193Z,3.4
2017-01-28T00:55:50.357Z,3.49
2017-01-28T00:56:56.538Z,3.47
2017-01-28T00:58:00.737Z,3.54
2017-01-28T00:59:05.964Z,3.4
2017-01-28T01:00:11.107Z,3.46
2017-01-28T01:01:15.372Z,3.46
2017-01-28T01:02:21.526Z,3.44
2017-01-28T01:03:27.702Z,3.44
2017-01-28T01:04:32.912Z,3.43
2017-01-28T01:05:38.133Z,3.31
2017-01-28T01:06:44.308Z,3.34
2017-01-28T01:07:49.493Z,3.33
2017-01-28T01:08:54.645Z,3.2
2017-01-28T01:10:00.823Z,3.21
2017-01-28T01:11:06.017Z,3.15
2017-01-28T01:12:12.178Z,3.13
2017-01-28T01:13:17.422Z,3.12
2017-01-28T01:14:23.553Z,3.12
2017-01-28T01:15:29.726Z,3.07
2017-01-28T01:16:34.993Z,3.07
2017-01-28T01:17:40.209Z,3.05
2017-01-28T01:18:46.382Z,3.06
2017-01-28T01:19:51.621Z,2.97
2017-01-28T01:20:57.775Z,2.92
2017-01-28T01:22:02.985Z,2.95
2017-01-28T01:23:07.296Z,2.88
2017-01-28T01:24:13.473Z,2.87
2017-01-28T01:25:19.711Z,2.87
2017-01-28T01:26:24.922Z,2.91
2017-01-28T01:27:30.170Z,2.95
2017-01-28T01:28:36.354Z,2.92
2017-01-28T01:29:39.597Z,2.92
2017-01-28T01:30:44.794Z,2.97
2017-01-28T01:31:50.957Z,2.97
2017-01-28T01:32:54.222Z,3.05
2017-01-28T01:34:00.397Z,3.03
2017-01-28T01:35:06.570Z,2.94
2017-01-28T01:36:12.785Z,2.94
2017-01-28T01:37:18.958Z,3
2017-01-28T01:38:25.131Z,3.03
2017-01-28T01:39:31.336Z,3.1
2017-01-28T01:40:37.554Z,3.1
2017-01-28T01:41:43.749Z,2.98
2017-01-28T01:42:49.878Z,3.05
2017-01-28T01:43:56.047Z,3.1
2017-01-28T01:45:00.251Z,3.12
2017-01-28T01:46:04.581Z,3.06
2017-01-28T01:47:10.755Z,2.97
2017-01-28T01:48:15.966Z,2.94
2017-01-28T01:49:22.138Z,2.91
2017-01-28T01:50:28.319Z,2.85
2017-01-28T01:51:33.517Z,2.7
2017-01-28T01:52:38.722Z,2.7
2017-01-28T01:53:43.932Z,2.7
2017-01-28T01:54:49.209Z,2.73
2017-01-28T01:55:55.459Z,2.77
2017-01-28T01:57:01.626Z,2.71
2017-01-28T01:58:06.840Z,2.66
2017-01-28T01:59:10.068Z,2.7
2017-01-28T02:00:13.337Z,2.79
2017-01-28T02:01:19.499Z,2.74
2017-01-28T02:02:25.715Z,2.73
2017-01-28T02:03:31.882Z,2.82
2017-01-28T02:04:38.049Z,2.88
2017-01-28T02:05:43.259Z,2.89
2017-01-28T02:06:48.461Z,2.91
2017-01-28T02:07:53.658Z,2.91
2017-01-28T02:08:58.875Z,2.89
2017-01-28T02:10:04.074Z,2.92
2017-01-28T02:11:09.275Z,2.92
2017-01-28T02:12:13.478Z,2.95
2017-01-28T02:13:17.694Z,3.05
2017-01-28T02:14:23.857Z,3.03
2017-01-28T02:15:29.061Z,3.07
2017-01-28T02:16:35.304Z,2.97
2017-01-28T02:17:39.556Z,2.98
2017-01-28T02:18:45.724Z,2.98
2017-01-28T02:19:51.966Z,3
2017-01-28T02:20:58.093Z,2.95
2017-01-28T02:22:04.266Z,2.94
2017-01-28T02:23:09.462Z,2.91
2017-01-28T02:24:15.629Z,2.97
2017-01-28T02:25:19.859Z,2.97
2017-01-28T02:26:25.070Z,3.06
2017-01-28T02:27:31.234Z,3.02
2017-01-28T02:28:36.491Z,3.09
2017-01-28T02:29:42.656Z,3
2017-01-28T02:30:47.853Z,3.07
2017-01-28T02:31:54.021Z,2.98
2017-01-28T02:33:00.190Z,3.03
2017-01-28T02:34:06.352Z,3.06
2017-01-28T02:35:11.644Z,3.03
2017-01-28T02:36:17.860Z,3.06
2017-01-28T02:37:23.986Z,3
2017-01-28T02:38:30.196Z,3.06
2017-01-28T02:39:35.390Z,2.98
2017-01-28T02:40:40.623Z,2.95
2017-01-28T02:41:46.796Z,3.02
2017-01-28T02:42:52.966Z,3.05
2017-01-28T02:43:59.142Z,2.91
2017-01-28T02:45:05.313Z,2.91
2017-01-28T02:46:10.493Z,2.91
2017-01-28T02:47:16.663Z,2.87
2017-01-28T02:48:22.828Z,2.7
2017-01-28T02:49:28.987Z,2.76
2017-01-28T02:50:34.193Z,2.66
2017-01-28T02:51:40.365Z,2.64
2017-01-28T02:52:45.569Z,2.53
2017-01-28T02:53:51.733Z,2.52
2017-01-28T02:54:55.076Z,2.48
2017-01-28T02:56:00.272Z,2.55
2017-01-28T02:57:04.473Z,2.48
2017-01-28T02:58:09.682Z,2.4
2017-01-28T02:59:14.875Z,2.35
2017-01-28T03:00:21.051Z,2.3
2017-01-28T03:01:25.317Z,2.26
2017-01-28T03:02:31.453Z,2.27
2017-01-28T03:03:37.610Z,2.15
2017-01-28T03:04:42.785Z,2.22
2017-01-28T03:05:48.955Z,2.1
2017-01-28T03:06:54.152Z,2.19
2017-01-28T03:07:58.358Z,2.12
2017-01-28T03:09:04.525Z,2.1
2017-01-28T03:10:10.724Z,2.06
2017-01-28T03:11:14.962Z,2.04
2017-01-28T03:12:21.142Z,2.19
2017-01-28T03:13:26.340Z,2.13
2017-01-28T03:14:32.512Z,2.13
2017-01-28T03:15:37.708Z,2.12
2017-01-28T03:16:43.880Z,2.06
2017-01-28T03:17:50.044Z,2.12
2017-01-28T03:18:56.204Z,2.12
2017-01-28T03:20:00.485Z,2.09
2017-01-28T03:21:06.608Z,2.13
2017-01-28T03:22:12.779Z,2.09
2017-01-28T03:23:17.955Z,2.1
2017-01-28T03:24:24.118Z,2.13
2017-01-28T03:25:28.354Z,2.06
2017-01-28T03:26:33.543Z,2.02
2017-01-28T03:27:38.837Z,1.99
2017-01-28T03:28:43.041Z,1.98
2017-01-28T03:29:48.240Z,2.02
2017-01-28T03:30:51.487Z,2.01
2017-01-28T03:31:55.727Z,1.97
2017-01-28T03:32:59.961Z,1.94
2017-01-28T03:34:06.094Z,2.06
2017-01-28T03:35:11.365Z,1.98
2017-01-28T03:36:16.561Z,2.04
2017-01-28T03:37:20.811Z,2.04
2017-01-28T03:38:25.039Z,2.02
2017-01-28T03:39:30.208Z,1.98
2017-01-28T03:40:34.439Z,1.89
2017-01-28T03:41:39.639Z,1.98
2017-01-28T03:42:44.846Z,1.93
2017-01-28T03:43:51.033Z,1.94
2017-01-28T03:44:56.217Z,1.87
2017-01-28T03:46:02.387Z,1.83
2017-01-28T03:47:08.561Z,1.87
2017-01-28T03:48:14.733Z,1.87
2017-01-28T03:49:19.924Z,1.83
2017-01-28T03:50:26.097Z,1.89
2017-01-28T03:51:30.305Z,1.82
2017-01-28T03:52:36.470Z,1.87
2017-01-28T03:53:40.743Z,1.85
2017-01-28T03:54:46.903Z,1.9
2017-01-28T03:55:53.075Z,1.9
2017-01-28T03:56:59.230Z,1.87
2017-01-28T03:58:05.466Z,1.83
2017-01-28T03:59:11.634Z,1.85
2017-01-28T04:00:17.808Z,1.9
2017-01-28T04:01:22.016Z,1.82
2017-01-28T04:02:28.185Z,1.8
2017-01-28T04:03:33.358Z,1.79
2017-01-28T04:04:38.561Z,1.79
2017-01-28T04:05:43.732Z,1.76
2017-01-28T04:06:47.932Z,1.8
2017-01-28T04:07:54.094Z,1.8
2017-01-28T04:08:58.345Z,1.83
2017-01-28T04:10:03.557Z,1.82
2017-01-28T04:11:08.744Z,1.69
2017-01-28T04:12:12.948Z,1.78
2017-01-28T04:13:18.148Z,1.69
2017-01-28T04:14:23.313Z,1.72
2017-01-28T04:15:29.514Z,1.65
2017-01-28T04:16:35.701Z,1.65
2017-01-28T04:17:41.858Z,1.72
2017-01-28T04:18:48.234Z,1.72
2017-01-28T04:19:53.439Z,1.72
2017-01-28T04:20:59.615Z,1.68
2017-01-28T04:22:05.825Z,1.78
2017-01-28T04:23:11.991Z,1.69
2017-01-28T04:24:18.178Z,1.72
2017-01-28T04:25:23.347Z,1.75
2017-01-28T04:26:29.510Z,1.73
2017-01-28T04:27:33.714Z,1.68
2017-01-28T04:28:38.917Z,1.65
2017-01-28T04:29:45.079Z,1.73
2017-01-28T04:30:50.248Z,1.61
2017-01-28T04:31:55.446Z,1.73
2017-01-28T04:32:59.666Z,1.72
2017-01-28T04:34:03.895Z,1.73
2017-01-28T04:35:09.085Z,1.64
2017-01-28T04:36:15.248Z,1.68
2017-01-28T04:37:21.637Z,1.72
2017-01-28T04:38:24.808Z,1.68
2017-01-28T04:39:30.099Z,1.68
2017-01-28T04:40:34.329Z,1.76
2017-01-28T04:41:40.495Z,1.78
2017-01-28T04:42:46.655Z,1.76
2017-01-28T04:43:51.861Z,1.71
2017-01-28T04:44:58.022Z,1.64
2017-01-28T04:46:04.194Z,1.65
2017-01-28T04:47:08.396Z,1.71
2017-01-28T04:48:12.735Z,1.78
2017-01-28T04:49:18.898Z,1.79
2017-01-28T04:50:24.163Z,1.75
2017-01-28T04:51:29.390Z,1.79
2017-01-28T04:52:35.556Z,1.79
2017-01-28T04:53:40.753Z,1.82
2017-01-28T04:54:45.944Z,1.8
2017-01-28T04:55:52.114Z,1.78
2017-01-28T04:56:58.298Z,1.79
2017-01-28T04:58:04.454Z,1.85
2017-01-28T04:59:10.620Z,1.8
2017-01-28T05:00:15.847Z,1.85
2017-01-28T05:01:21.044Z,1.83
2017-01-28T05:02:26.331Z,1.89
2017-01-28T05:03:32.508Z,1.87
2017-01-28T05:04:38.674Z,1.91
2017-01-28T05:05:43.916Z,1.99
2017-01-28T05:06:50.054Z,2.02
2017-01-28T05:07:56.245Z,1.98
2017-01-28T05:09:01.410Z,1.98
2017-01-28T05:10:06.604Z,2.01
2017-01-28T05:11:11.901Z,1.99
2017-01-28T05:12:16.024Z,2.13
2017-01-28T05:13:20.224Z,2.08
2017-01-28T05:14:25.429Z,2.09
2017-01-28T05:15:31.679Z,2.16
2017-01-28T05:16:34.947Z,2.17
2017-01-28T05:17:39.224Z,2.17
2017-01-28T05:18:44.422Z,2.17
2017-01-28T05:19:49.627Z,2.28
2017-01-28T05:20:54.822Z,2.2
2017-01-28T05:22:00.996Z,2.28
2017-01-28T05:23:06.198Z,2.3
2017-01-28T05:24:11.462Z,2.35
2017-01-28T05:25:17.623Z,2.46
2017-01-28T05:26:23.797Z,2.51
2017-01-28T05:27:28.991Z,2.53
2017-01-28T05:28:35.157Z,2.49
2017-01-28T05:29:39.388Z,2.49
2017-01-28T05:30:45.652Z,2.59
2017-01-28T05:31:51.763Z,2.66
2017-01-28T05:32:57.930Z,2.67
2017-01-28T05:34:02.135Z,2.76
2017-01-28T05:35:07.333Z,2.71
2017-01-28T05:36:12.537Z,2.74
2017-01-28T05:37:18.699Z,2.69
2017-01-28T05:38:22.896Z,2.71
2017-01-28T05:39:28.095Z,2.71
2017-01-28T05:40:33.306Z,2.71
2017-01-28T05:41:39.470Z,2.77
2017-01-28T05:42:43.787Z,2.71
2017-01-28T05:43:47.075Z,2.74
2017-01-28T05:44:53.268Z,2.66
2017-01-28T05:45:59.433Z,2.67
2017-01-28T05:47:05.605Z,2.73
2017-01-28T05:48:10.831Z,2.81
2017-01-28T05:49:16.039Z,2.82
2017-01-28T05:50:21.238Z,2.82
2017-01-28T05:51:25.447Z,2.89
2017-01-28T05:52:31.615Z,2.94
2017-01-28T05:53:35.818Z,2.95
2017-01-28T05:54:41.991Z,2.98
2017-01-28T05:55:46.292Z,3.07
2017-01-28T05:56:52.455Z,3.03
2017-01-28T05:57:58.658Z,3.06
2017-01-28T05:59:04.832Z,3.06
2017-01-28T06:00:10.029Z,3.07
2017-01-28T06:01:16.195Z,3.06
2017-01-28T06:02:22.372Z,3.12
2017-01-28T06:03:26.570Z,3.07
2017-01-28T06:04:31.744Z,3.1
2017-01-28T06:05:36.939Z,3.12
2017-01-28T06:06:43.106Z,3.09
2017-01-28T06:07:49.261Z,3.06
2017-01-28T06:08:52.528Z,3.06
2017-01-28T06:09:57.731Z,3.09
2017-01-28T06:11:01.961Z,3.02
2017-01-28T06:12:07.159Z,3.05
2017-01-28T06:13:13.357Z,3.09
2017-01-28T06:14:17.588Z,3.1
2017-01-28T06:15:22.783Z,3.1
2017-01-28T06:16:28.019Z,3.07
2017-01-28T06:17:33.182Z,3.09
2017-01-28T06:18:38.386Z,3.15
2017-01-28T06:19:44.553Z,3.21
2017-01-28T06:20:48.751Z,3.21
2017-01-28T06:21:53.949Z,3.23
2017-01-28T06:22:58.190Z,3.24
2017-01-28T06:24:03.379Z,3.27
2017-01-28T06:25:09.540Z,3.2
2017-01-28T06:26:14.734Z,3.2
2017-01-28T06:27:19.948Z,3.13
2017-01-28T06:28:24.184Z,3.12
2017-01-28T06:29:29.522Z,3.16
2017-01-28T06:30:34.724Z,3.16
2017-01-28T06:31:39.911Z,3.21
2017-01-28T06:32:44.153Z,3.18
2017-01-28T06:33:50.344Z,3.2
2017-01-28T06:34:54.577Z,3.18
2017-01-28T06:35:57.848Z,3.18
2017-01-28T06:37:03.020Z,3.1
2017-01-28T06:38:09.181Z,3.06
2017-01-28T06:39:15.415Z,3.07
2017-01-28T06:40:19.627Z,3.07
2017-01-28T06:41:23.904Z,3.03
2017-01-28T06:42:29.077Z,2.94
2017-01-28T06:43:35.358Z,2.94
2017-01-28T06:44:41.525Z,2.94
2017-01-28T06:45:46.722Z,2.91
2017-01-28T06:46:52.899Z,2.88
2017-01-28T06:47:59.081Z,2.88
2017-01-28T06:49:03.436Z,2.89
2017-01-28T06:50:06.700Z,2.89
2017-01-28T06:51:12.903Z,2.84
2017-01-28T06:52:18.103Z,2.88
2017-01-28T06:53:24.266Z,2.84
2017-01-28T06:54:29.445Z,2.81
2017-01-28T06:55:34.612Z,2.77
2017-01-28T06:56:40.780Z,2.77
2017-01-28T06:57:46.016Z,2.71
2017-01-28T06:58:51.182Z,2.73
2017-01-28T06:59:56.356Z,2.7
2017-01-28T07:01:02.528Z,2.73
2017-01-28T07:02:06.766Z,2.74
2017-01-28T07:03:12.942Z,2.91
2017-01-28T07:04:17.172Z,2.84
2017-01-28T07:05:23.341Z,2.92
2017-01-28T07:06:29.515Z,2.92
2017-01-28T07:07:34.736Z,2.97
2017-01-28T07:08:40.903Z,2.91
2017-01-28T07:09:47.054Z,3.02
2017-01-28T07:10:51.308Z,3.02
2017-01-28T07:11:57.529Z,3.12
2017-01-28T07:13:02.725Z,3.12
2017-01-28T07:14:06.958Z,3.1
2017-01-28T07:15:12.129Z,3.07
2017-01-28T07:16:17.423Z,3.12
2017-01-28T07:17:22.610Z,3.18
2017-01-28T07:18:28.811Z,3.24
2017-01-28T07:19:34.948Z,3.23
2017-01-28T07:20:40.152Z,3.21
2017-01-28T07:21:46.327Z,3.23
2017-01-28T07:22:52.491Z,3.31
2017-01-28T07:23:57.712Z,3.28
2017-01-28T07:25:03.884Z,3.24
2017-01-28T07:26:10.051Z,3.27
2017-01-28T07:27:15.235Z,3.21
2017-01-28T07:28:21.403Z,3.28
2017-01-28T07:29:27.565Z,3.21
2017-01-28T07:30:32.763Z,3.2
2017-01-28T07:31:37.940Z,3.2
2017-01-28T07:32:44.109Z,3.13
2017-01-28T07:33:50.405Z,3.09
2017-01-28T07:34:56.535Z,3.2
2017-01-28T07:36:00.887Z,3.24
2017-01-28T07:37:06.055Z,3.21
2017-01-28T07:38:11.256Z,3.25
2017-01-28T07:39:15.459Z,3.31
2017-01-28T07:40:20.633Z,3.28
2017-01-28T07:41:26.802Z,3.28
2017-01-28T07:42:33.038Z,3.3
2017-01-28T07:43:38.246Z,3.39
2017-01-28T07:44:43.449Z,3.39
2017-01-28T07:45:48.658Z,3.3
2017-01-28T07:46:53.858Z,3.43
2017-01-28T07:48:00.061Z,3.47
2017-01-28T07:49:04.277Z,3.42
2017-01-28T07:50:10.474Z,3.57
2017-01-28T07:51:16.663Z,3.72
2017-01-28T07:52:20.894Z,3.7
2017-01-28T07:53:25.100Z,3.8
2017-01-28T07:54:29.300Z,3.92
2017-01-28T07:55:34.536Z,3.92
2017-01-28T07:56:40.720Z,4.12
2017-01-28T07:57:46.895Z,4.22
2017-01-28T07:58:52.071Z,4.61
2017-01-28T07:59:58.297Z,4.76
2017-01-28T08:01:03.607Z,4.98
2017-01-28T08:02:09.877Z,5.05
2017-01-28T08:03:16.058Z,5.2
2017-01-28T08:04:21.253Z,5.35
2017-01-28T08:05:26.457Z,5.55
2017-01-28T08:06:31.591Z,5.66
2017-01-28T08:07:37.767Z,5.81
2017-01-28T08:08:44.090Z,5.78
2017-01-28T08:09:50.286Z,6.01
2017-01-28T08:10:56.435Z,6.26
2017-01-28T08:12:01.686Z,6.43
2017-01-28T08:13:06.890Z,6.54
2017-01-28T08:14:12.094Z,6.72
2017-01-28T08:15:17.311Z,6.68
2017-01-28T08:16:23.720Z,6.87
2017-01-28T08:17:29.884Z,6.89
2017-01-28T08:18:36.060Z,6.84
2017-01-28T08:19:41.229Z,6.86
2017-01-28T08:20:46.409Z,6.8
2017-01-28T08:21:51.680Z,6.69
2017-01-28T08:22:57.854Z,6.66
2017-01-28T08:24:04.111Z,6.56
2017-01-28T08:25:10.293Z,6.46
2017-01-28T08:26:15.465Z,6.51
2017-01-28T08:27:20.671Z,6.4
2017-01-28T08:28:26.856Z,6.28
2017-01-28T08:29:31.121Z,6.26
2017-01-28T08:30:35.410Z,6.19
2017-01-28T08:31:39.632Z,6.26
2017-01-28T08:32:44.886Z,6.13
2017-01-28T08:33:51.073Z,6.22
2017-01-28T08:34:56.422Z,6.13
2017-01-28T08:36:00.645Z,6.22
2017-01-28T08:37:05.823Z,6.26
2017-01-28T08:38:11.022Z,6.32
2017-01-28T08:39:16.289Z,6.28
2017-01-28T08:40:21.463Z,6.25
2017-01-28T08:41:25.694Z,6.26
2017-01-28T08:42:30.900Z,6.29
2017-01-28T08:43:37.070Z,6.26
2017-01-28T08:44:43.280Z,6.29
2017-01-28T08:45:47.457Z,6.3
2017-01-28T08:46:53.628Z,6.28
2017-01-28T08:47:57.858Z,6.32
2017-01-28T08:49:02.104Z,6.28
2017-01-28T08:50:07.302Z,6.29
2017-01-28T08:51:13.463Z,6.26
2017-01-28T08:52:18.630Z,6.26
2017-01-28T08:53:22.867Z,6.3
2017-01-28T08:54:27.078Z,6.29
2017-01-28T08:55:33.258Z,6.41
2017-01-28T08:56:39.433Z,6.48
2017-01-28T08:57:44.601Z,6.41
2017-01-28T08:58:47.870Z,6.59
2017-01-28T08:59:52.153Z,6.68
2017-01-28T09:00:58.292Z,6.63
2017-01-28T09:02:04.463Z,6.73
2017-01-28T09:03:09.676Z,6.69
2017-01-28T09:04:13.924Z,6.84
2017-01-28T09:06:25.370Z,6.99
2017-01-28T09:07:30.569Z,6.98
2017-01-28T09:08:33.803Z,7.01
2017-01-28T09:09:39.984Z,7.16
2017-01-28T09:10:46.156Z,7.02
2017-01-28T09:11:51.360Z,7.08
2017-01-28T09:12:56.579Z,7.09
2017-01-28T09:14:02.750Z,7.24
2017-01-28T09:15:07.952Z,7.35
2017-01-28T09:16:12.172Z,7.42
2017-01-28T09:17:16.409Z,7.47
2017-01-28T09:18:21.683Z,7.66
2017-01-28T09:19:27.873Z,7.77
2017-01-28T09:20:33.054Z,7.82
2017-01-28T09:21:39.242Z,7.93
2017-01-28T09:22:43.478Z,7.99
2017-01-28T09:23:49.615Z,7.97
2017-01-28T09:24:52.859Z,8.07
2017-01-28T09:25:59.034Z,8.04
2017-01-28T09:27:02.265Z,8.07
2017-01-28T09:28:05.499Z,8.2
2017-01-28T09:29:10.796Z,8.2
2017-01-28T09:30:16.006Z,8.17
2017-01-28T09:31:21.260Z,8.25
2017-01-28T09:32:27.473Z,8.29
2017-01-28T09:33:32.633Z,8.39
2017-01-28T09:34:36.869Z,8.4
2017-01-28T09:35:42.072Z,8.5
2017-01-28T09:36:46.271Z,8.55
2017-01-28T09:37:52.503Z,8.58
2017-01-28T09:38:57.669Z,8.51
2017-01-28T09:40:01.940Z,8.63
2017-01-28T09:41:07.123Z,8.78
2017-01-28T09:42:12.337Z,8.84
2017-01-28T09:43:17.559Z,9.06
2017-01-28T09:44:22.833Z,9.25
2017-01-28T09:45:27.075Z,9.45
2017-01-28T09:46:32.274Z,9.57
2017-01-28T09:47:38.462Z,9.58
2017-01-28T09:48:43.634Z,9.83
2017-01-28T09:49:49.850Z,10.04
2017-01-28T09:50:54.083Z,10.06
2017-01-28T09:51:59.267Z,10.09
2017-01-28T09:53:03.617Z,10.19
2017-01-28T09:54:09.746Z,10.19
2017-01-28T09:55:15.916Z,10.09
2017-01-28T09:56:22.091Z,10.14
2017-01-28T09:57:27.294Z,9.99
2017-01-28T09:58:33.472Z,9.93
2017-01-28T09:59:38.658Z,9.83
2017-01-28T10:00:43.865Z,9.71
2017-01-28T10:01:50.051Z,9.73
2017-01-28T10:02:56.221Z,9.68
2017-01-28T10:04:02.389Z,9.91
2017-01-28T10:05:07.606Z,9.99
2017-01-28T10:06:11.816Z,10.18
2017-01-28T10:07:16.090Z,10.44
2017-01-28T10:08:22.275Z,10.7
2017-01-28T10:09:27.484Z,11.09
2017-01-28T10:10:33.663Z,11.44
2017-01-28T10:11:38.841Z,11.71
2017-01-28T10:12:45.026Z,11.99
2017-01-28T10:13:51.203Z,12.11
2017-01-28T10:14:57.389Z,12.12
2017-01-28T10:16:03.570Z,12.08
2017-01-28T10:17:08.826Z,11.8
2017-01-28T10:18:15.006Z,11.87
2017-01-28T10:19:21.214Z,11.75
2017-01-28T10:20:27.355Z,11.99
2017-01-28T10:21:33.530Z,12.21
2017-01-28T10:22:38.745Z,12.44
2017-01-28T10:23:44.924Z,12.74
2017-01-28T10:24:51.097Z,12.69
2017-01-28T10:25:56.309Z,12.89
2017-01-28T10:27:02.485Z,13
2017-01-28T10:28:08.657Z,13.25
2017-01-28T10:29:14.834Z,13.59
2017-01-28T10:30:21.020Z,14.16
2017-01-28T10:31:25.246Z,14.61
2017-01-28T10:32:31.526Z,15.06
2017-01-28T10:33:36.734Z,15.51
2017-01-28T10:34:41.956Z,16.14
2017-01-28T10:35:48.139Z,16.74
2017-01-28T10:36:52.380Z,17.04
2017-01-28T10:37:56.639Z,17.59
2017-01-28T10:39:02.829Z,17.74
2017-01-28T10:40:09.009Z,17.87
2017-01-28T10:41:13.265Z,17.78
2017-01-28T10:42:19.479Z,17.47
2017-01-28T10:43:25.638Z,17.2
2017-01-28T10:44:29.873Z,17.26
2017-01-28T10:45:35.132Z,17.33
2017-01-28T10:46:39.307Z,17.38
2017-01-28T10:47:45.587Z,17.41
2017-01-28T10:48:51.749Z,17.67
2017-01-28T10:49:56.935Z,17.73
2017-01-28T10:51:03.122Z,17.91
2017-01-28T10:52:09.296Z,18.09
2017-01-28T10:53:15.478Z,17.85
2017-01-28T10:54:21.671Z,17.57
2017-01-28T10:55:27.860Z,17.08
2017-01-28T10:56:33.070Z,16.62
2017-01-28T10:57:38.251Z,15.89
2017-01-28T10:58:44.431Z,15.46
2017-01-28T10:59:49.716Z,15.11
2017-01-28T11:00:54.971Z,14.67
2017-01-28T11:02:00.149Z,14.34
2017-01-28T11:03:06.333Z,13.94
2017-01-28T11:04:11.541Z,13.43
2017-01-28T11:05:17.734Z,12.93
2017-01-28T11:06:22.935Z,12.74
2017-01-28T11:07:27.148Z,12.67
2017-01-28T11:08:33.330Z,12.74
2017-01-28T11:09:39.502Z,12.51
2017-01-28T11:10:43.714Z,12.52
2017-01-28T11:11:47.956Z,12.49
2017-01-28T11:12:54.230Z,12.42
2017-01-28T11:14:00.443Z,12.44
2017-01-28T11:15:05.699Z,12.31
2017-01-28T11:16:10.893Z,12.19
2017-01-28T11:17:16.088Z,12.13
2017-01-28T11:18:21.293Z,12.09
2017-01-28T11:19:26.512Z,12.01
2017-01-28T11:20:30.749Z,11.71
2017-01-28T11:21:34.990Z,11.8
2017-01-28T11:22:41.172Z,11.78
2017-01-28T11:23:47.380Z,11.87
2017-01-28T11:24:50.698Z,11.86
2017-01-28T11:25:55.913Z,11.82
2017-01-28T11:27:02.090Z,11.86
2017-01-28T11:28:08.300Z,11.77
2017-01-28T11:29:14.477Z,11.74
2017-01-28T11:30:19.647Z,11.59
2017-01-28T11:31:23.924Z,11.56
2017-01-28T11:32:29.130Z,11.49
2017-01-28T11:33:33.364Z,11.5
2017-01-28T11:34:38.582Z,11.44
2017-01-28T11:35:43.830Z,11.31
2017-01-28T11:36:48.029Z,11.39
2017-01-28T11:37:53.255Z,11.35
2017-01-28T11:38:58.461Z,11.25
2017-01-28T11:40:03.668Z,11.25
2017-01-28T11:41:08.838Z,11.2
2017-01-28T11:42:15.012Z,11.24
2017-01-28T11:43:21.224Z,11.24
2017-01-28T11:44:27.388Z,11.21
2017-01-28T11:45:33.568Z,11.27
2017-01-28T11:46:37.827Z,11.24
2017-01-28T11:47:42.033Z,11.19
2017-01-28T11:48:47.287Z,11.14
2017-01-28T11:49:52.454Z,11.1
2017-01-28T11:50:57.683Z,11.07
2017-01-28T11:52:02.895Z,11.07
2017-01-28T11:53:07.109Z,11.14
2017-01-28T11:54:12.289Z,11.01
2017-01-28T11:55:18.524Z,11.01
2017-01-28T11:56:24.657Z,11.02
2017-01-28T11:57:29.867Z,11.02
2017-01-28T11:58:36.042Z,11.03
2017-01-28T11:59:41.231Z,11.02
2017-01-28T12:00:47.412Z,10.92
2017-01-28T12:01:51.676Z,10.84
2017-01-28T12:02:56.872Z,10.95
2017-01-28T12:04:03.054Z,10.88
2017-01-28T12:05:08.275Z,10.91
2017-01-28T12:06:14.454Z,10.83
2017-01-28T12:07:19.668Z,10.84
2017-01-28T12:08:23.922Z,10.83
2017-01-28T12:09:28.130Z,10.96
2017-01-28T12:10:33.349Z,10.96
2017-01-28T12:11:39.501Z,10.98
2017-01-28T12:12:43.757Z,10.98
2017-01-28T12:13:49.936Z,10.99
2017-01-28T12:14:56.137Z,10.99
2017-01-28T12:16:02.315Z,11.01
2017-01-28T12:17:08.483Z,11.06
2017-01-28T12:18:14.657Z,11.11
2017-01-28T12:19:18.896Z,11.14
2017-01-28T12:20:25.072Z,11.19
2017-01-28T12:21:29.316Z,11.24
2017-01-28T12:22:34.516Z,11.28
2017-01-28T12:23:39.778Z,11.11
2017-01-28T12:24:44.984Z,11.25
2017-01-28T12:25:50.181Z,11.19
2017-01-28T12:26:55.381Z,11.19
2017-01-28T12:28:00.594Z,11.29
2017-01-28T12:29:05.811Z,11.29
2017-01-28T12:30:11.018Z,11.32
2017-01-28T12:31:17.195Z,11.39
2017-01-28T12:32:23.390Z,11.47
2017-01-28T12:33:29.543Z,11.43
2017-01-28T12:34:35.726Z,11.56
2017-01-28T12:35:42.005Z,11.56
2017-01-28T12:36:47.135Z,11.64
2017-01-28T12:37:52.339Z,11.75
2017-01-28T12:38:57.517Z,11.71
2017-01-28T12:40:03.727Z,11.82
2017-01-28T12:41:09.893Z,11.87
2017-01-28T12:42:16.157Z,11.9
2017-01-28T12:43:21.357Z,11.96
2017-01-28T12:44:27.596Z,11.94
2017-01-28T12:45:32.814Z,11.94
2017-01-28T12:46:39.003Z,12.01
2017-01-28T12:47:43.200Z,11.96
2017-01-28T12:48:49.377Z,11.99
2017-01-28T12:49:52.613Z,11.97
2017-01-28T12:50:58.788Z,11.99
2017-01-28T12:52:03.971Z,12.06
2017-01-28T12:53:10.150Z,12.04
2017-01-28T12:54:16.333Z,12.11
2017-01-28T12:55:20.601Z,12.12
2017-01-28T12:56:25.864Z,12.06
2017-01-28T12:57:31.995Z,12.05
2017-01-28T12:58:38.175Z,12.13
2017-01-28T12:59:43.376Z,12.02
2017-01-28T13:00:49.568Z,12.16
2017-01-28T13:01:54.775Z,12.01
2017-01-28T13:03:00.958Z,12.01
2017-01-28T13:04:05.167Z,12.01
2017-01-28T13:05:11.399Z,12.01
2017-01-28T13:06:16.607Z,11.96
2017-01-28T13:07:21.811Z,11.94
2017-01-28T13:08:27.017Z,11.77
2017-01-28T13:09:32.234Z,11.71
2017-01-28T13:10:38.400Z,11.72
2017-01-28T13:11:43.609Z,11.72
2017-01-28T13:12:49.787Z,11.72
2017-01-28T13:13:54.969Z,11.65
2017-01-28T13:15:00.177Z,11.53
2017-01-28T13:16:04.449Z,11.62
2017-01-28T13:17:09.654Z,11.53
2017-01-28T13:18:13.873Z,11.47
2017-01-28T13:19:19.078Z,11.57
2017-01-28T13:20:24.271Z,11.53
2017-01-28T13:21:30.451Z,11.49
2017-01-28T13:22:36.714Z,11.41
2017-01-28T13:23:42.887Z,11.39
2017-01-28T13:24:48.093Z,11.41
2017-01-28T13:25:54.272Z,11.43
2017-01-28T13:26:59.477Z,11.43
2017-01-28T13:28:04.661Z,11.44
2017-01-28T13:29:09.917Z,11.36
2017-01-28T13:30:15.135Z,11.38
2017-01-28T13:31:21.358Z,11.35
2017-01-28T13:32:27.574Z,11.34
2017-01-28T13:33:31.843Z,11.41
2017-01-28T13:34:38.015Z,11.27
2017-01-28T13:35:43.223Z,11.39
2017-01-28T13:36:49.399Z,11.38
2017-01-28T13:37:53.653Z,11.28
2017-01-28T13:38:59.828Z,11.32
2017-01-28T13:40:05.033Z,11.25
2017-01-28T13:41:10.229Z,11.2
2017-01-28T13:42:15.442Z,11.21
2017-01-28T13:43:19.654Z,11.21
2017-01-28T13:44:24.851Z,11.21
2017-01-28T13:45:30.066Z,11.2
2017-01-28T13:46:35.291Z,11.2
2017-01-28T13:47:40.500Z,11.28
2017-01-28T13:48:45.722Z,11.17
2017-01-28T13:49:51.894Z,11.24
2017-01-28T13:50:56.114Z,11.21
2017-01-28T13:52:01.410Z,11.14
2017-01-28T13:53:07.610Z,11.16
2017-01-28T13:54:09.892Z,11.13
2017-01-28T13:55:16.062Z,11.1
2017-01-28T13:56:22.285Z,11.03
2017-01-28T13:57:26.525Z,11.11
2017-01-28T13:58:31.803Z,11.09
2017-01-28T13:59:36.994Z,11.06
2017-01-28T14:00:43.169Z,11.02
2017-01-28T14:01:48.380Z,11.02
2017-01-28T14:02:54.561Z,11.06
2017-01-28T14:03:59.760Z,11.01
2017-01-28T14:05:05.971Z,10.99
2017-01-28T14:06:10.189Z,10.92
2017-01-28T14:07:15.406Z,10.92
2017-01-28T14:08:21.595Z,10.91
2017-01-28T14:09:26.805Z,10.88
2017-01-28T14:10:32.974Z,10.84
2017-01-28T14:11:39.153Z,10.78
2017-01-28T14:12:44.356Z,10.8
2017-01-28T14:13:49.575Z,10.74
2017-01-28T14:14:52.870Z,10.71
2017-01-28T14:15:57.053Z,10.7
2017-01-28T14:17:02.267Z,10.71
2017-01-28T14:18:06.507Z,10.76
2017-01-28T14:19:11.750Z,10.66
2017-01-28T14:20:17.909Z,10.65
2017-01-28T14:21:24.083Z,10.68
2017-01-28T14:22:29.285Z,10.66
2017-01-28T14:23:35.472Z,10.68
2017-01-28T14:24:40.682Z,10.68
2017-01-28T14:25:45.882Z,10.65
2017-01-28T14:26:50.121Z,10.59